sensor_id;sensor_type;location;lat;lon;timestamp;P1;durP1;ratioP1;P2;durP2;ratioP2
42858;SDS011;28505;56.970;40.998;2023-02-12T00:02:39;16.17;;;4.60;;
42858;SDS011;28505;56.970;40.998;2023-02-12T00:08:02;1.58;;;1.40;;
42858;SDS011;28505;56.970;40.998;2023-02-12T00:13:24;3.35;;;2.20;;
42858;SDS011;28505;56.970;40.998;2023-02-12T00:18:47;14.90;;;6.13;;
42858;SDS011;28505;56.970;40.998;2023-02-12T00:24:11;7.75;;;4.15;;
42858;SDS011;28505;56.970;40.998;2023-02-12T00:29:33;6.63;;;4.10;;
42858;SDS011;28505;56.970;40.998;2023-02-12T00:34:58;13.32;;;4.78;;
42858;SDS011;28505;56.970;40.998;2023-02-12T00:40:20;9.60;;;4.55;;
42858;SDS011;28505;56.970;40.998;2023-02-12T00:45:43;12.93;;;4.97;;
42858;SDS011;28505;56.970;40.998;2023-02-12T00:51:05;5.68;;;3.78;;
42858;SDS011;28505;56.970;40.998;2023-02-12T00:56:28;8.43;;;3.88;;
42858;SDS011;28505;56.970;40.998;2023-02-12T01:01:50;8.50;;;4.07;;
42858;SDS011;28505;56.970;40.998;2023-02-12T01:07:14;9.60;;;4.82;;
42858;SDS011;28505;56.970;40.998;2023-02-12T01:12:37;15.65;;;7.65;;
42858;SDS011;28505;56.970;40.998;2023-02-12T01:17:59;16.98;;;6.75;;
42858;SDS011;28505;56.970;40.998;2023-02-12T01:23:21;11.77;;;5.63;;
42858;SDS011;28505;56.970;40.998;2023-02-12T01:28:43;12.65;;;5.95;;
42858;SDS011;28505;56.970;40.998;2023-02-12T01:34:09;14.30;;;7.20;;
42858;SDS011;28505;56.970;40.998;2023-02-12T01:39:31;5.35;;;2.90;;
42858;SDS011;28505;56.970;40.998;2023-02-12T01:50:34;3.13;;;2.60;;
42858;SDS011;28505;56.970;40.998;2023-02-12T01:56:01;1.48;;;1.25;;
42858;SDS011;28505;56.970;40.998;2023-02-12T02:01:25;1.60;;;1.50;;
42858;SDS011;28505;56.970;40.998;2023-02-12T02:06:56;2.00;;;1.70;;
42858;SDS011;28505;56.970;40.998;2023-02-12T02:12:22;1.20;;;0.90;;
42858;SDS011;28505;56.970;40.998;2023-02-12T02:29:45;5.47;;;4.97;;
42858;SDS011;28505;56.970;40.998;2023-02-12T02:35:17;2.00;;;1.80;;
42858;SDS011;28505;56.970;40.998;2023-02-12T02:41:07;5.65;;;1.95;;
42858;SDS011;28505;56.970;40.998;2023-02-12T02:46:44;1.13;;;1.02;;
42858;SDS011;28505;56.970;40.998;2023-02-12T02:52:10;0.90;;;0.60;;
42858;SDS011;28505;56.970;40.998;2023-02-12T02:57:47;1.05;;;0.88;;
42858;SDS011;28505;56.970;40.998;2023-02-12T03:09:05;1.15;;;0.90;;
42858;SDS011;28505;56.970;40.998;2023-02-12T03:14:42;1.45;;;1.35;;
42858;SDS011;28505;56.970;40.998;2023-02-12T03:20:20;1.85;;;1.17;;
42858;SDS011;28505;56.970;40.998;2023-02-12T03:26:04;5.53;;;5.13;;
42858;SDS011;28505;56.970;40.998;2023-02-12T03:37:28;2.17;;;1.98;;
42858;SDS011;28505;56.970;40.998;2023-02-12T03:43:16;10.20;;;1.90;;
42858;SDS011;28505;56.970;40.998;2023-02-12T03:54:11;1.42;;;1.23;;
42858;SDS011;28505;56.970;40.998;2023-02-12T03:59:37;2.25;;;1.15;;
42858;SDS011;28505;56.970;40.998;2023-02-12T04:05:05;1.00;;;0.70;;
42858;SDS011;28505;56.970;40.998;2023-02-12T04:10:52;1.17;;;0.75;;
42858;SDS011;28505;56.970;40.998;2023-02-12T04:27:36;1.52;;;1.20;;
42858;SDS011;28505;56.970;40.998;2023-02-12T04:33:14;1.52;;;1.02;;
42858;SDS011;28505;56.970;40.998;2023-02-12T04:38:52;3.83;;;2.35;;
42858;SDS011;28505;56.970;40.998;2023-02-12T04:44:23;2.47;;;1.48;;
42858;SDS011;28505;56.970;40.998;2023-02-12T04:49:46;2.08;;;1.25;;
42858;SDS011;28505;56.970;40.998;2023-02-12T04:55:09;1.80;;;1.23;;
42858;SDS011;28505;56.970;40.998;2023-02-12T05:00:32;4.45;;;2.80;;
42858;SDS011;28505;56.970;40.998;2023-02-12T05:05:54;3.30;;;3.08;;
42858;SDS011;28505;56.970;40.998;2023-02-12T05:11:16;4.20;;;2.10;;
42858;SDS011;28505;56.970;40.998;2023-02-12T05:16:39;3.75;;;1.85;;
42858;SDS011;28505;56.970;40.998;2023-02-12T05:22:01;2.50;;;2.10;;
42858;SDS011;28505;56.970;40.998;2023-02-12T05:27:23;3.63;;;1.42;;
42858;SDS011;28505;56.970;40.998;2023-02-12T05:32:45;1.83;;;1.30;;
42858;SDS011;28505;56.970;40.998;2023-02-12T05:38:07;4.65;;;2.65;;
42858;SDS011;28505;56.970;40.998;2023-02-12T05:43:30;3.63;;;1.95;;
42858;SDS011;28505;56.970;40.998;2023-02-12T05:48:52;3.90;;;1.58;;
42858;SDS011;28505;56.970;40.998;2023-02-12T05:54:14;9.20;;;4.05;;
42858;SDS011;28505;56.970;40.998;2023-02-12T05:59:36;2.92;;;1.65;;
42858;SDS011;28505;56.970;40.998;2023-02-12T06:04:58;3.25;;;1.77;;
42858;SDS011;28505;56.970;40.998;2023-02-12T06:10:22;3.83;;;2.05;;
42858;SDS011;28505;56.970;40.998;2023-02-12T06:15:45;3.72;;;1.42;;
42858;SDS011;28505;56.970;40.998;2023-02-12T06:21:14;3.03;;;1.48;;
42858;SDS011;28505;56.970;40.998;2023-02-12T06:26:37;1.55;;;1.00;;
42858;SDS011;28505;56.970;40.998;2023-02-12T06:32:02;1.25;;;1.00;;
42858;SDS011;28505;56.970;40.998;2023-02-12T06:37:25;2.03;;;1.83;;
42858;SDS011;28505;56.970;40.998;2023-02-12T06:42:47;1.27;;;1.02;;
42858;SDS011;28505;56.970;40.998;2023-02-12T06:48:10;2.47;;;1.58;;
42858;SDS011;28505;56.970;40.998;2023-02-12T06:53:32;1.92;;;1.35;;
42858;SDS011;28505;56.970;40.998;2023-02-12T06:58:57;1.33;;;1.02;;
42858;SDS011;28505;56.970;40.998;2023-02-12T07:04:23;1.40;;;1.10;;
42858;SDS011;28505;56.970;40.998;2023-02-12T07:09:48;4.72;;;1.60;;
42858;SDS011;28505;56.970;40.998;2023-02-12T07:15:10;1.15;;;0.80;;
42858;SDS011;28505;56.970;40.998;2023-02-12T07:20:32;2.40;;;1.60;;
42858;SDS011;28505;56.970;40.998;2023-02-12T07:25:58;5.40;;;1.42;;
42858;SDS011;28505;56.970;40.998;2023-02-12T07:31:26;1.55;;;1.20;;
42858;SDS011;28505;56.970;40.998;2023-02-12T07:36:48;1.83;;;1.08;;
42858;SDS011;28505;56.970;40.998;2023-02-12T07:42:10;1.40;;;1.00;;
42858;SDS011;28505;56.970;40.998;2023-02-12T07:47:41;1.67;;;1.00;;
42858;SDS011;28505;56.970;40.998;2023-02-12T07:53:02;1.52;;;1.00;;
42858;SDS011;28505;56.970;40.998;2023-02-12T07:58:24;1.00;;;0.70;;
42858;SDS011;28505;56.970;40.998;2023-02-12T08:03:47;2.30;;;1.48;;
42858;SDS011;28505;56.970;40.998;2023-02-12T08:09:11;1.20;;;0.90;;
42858;SDS011;28505;56.970;40.998;2023-02-12T08:14:36;1.00;;;0.70;;
42858;SDS011;28505;56.970;40.998;2023-02-12T08:19:57;1.98;;;1.13;;
42858;SDS011;28505;56.970;40.998;2023-02-12T08:25:22;2.25;;;1.63;;
42858;SDS011;28505;56.970;40.998;2023-02-12T08:30:44;1.45;;;0.95;;
42858;SDS011;28505;56.970;40.998;2023-02-12T08:36:10;2.95;;;1.55;;
42858;SDS011;28505;56.970;40.998;2023-02-12T08:41:35;2.08;;;1.05;;
42858;SDS011;28505;56.970;40.998;2023-02-12T08:46:58;2.72;;;1.65;;
42858;SDS011;28505;56.970;40.998;2023-02-12T08:52:20;1.35;;;0.88;;
42858;SDS011;28505;56.970;40.998;2023-02-12T08:57:45;2.47;;;0.90;;
42858;SDS011;28505;56.970;40.998;2023-02-12T09:03:07;1.08;;;0.77;;
42858;SDS011;28505;56.970;40.998;2023-02-12T09:08:29;3.30;;;1.50;;
42858;SDS011;28505;56.970;40.998;2023-02-12T09:13:52;2.33;;;1.10;;
42858;SDS011;28505;56.970;40.998;2023-02-12T09:19:14;1.00;;;0.70;;
42858;SDS011;28505;56.970;40.998;2023-02-12T09:24:36;1.98;;;1.15;;
42858;SDS011;28505;56.970;40.998;2023-02-12T09:29:59;2.45;;;1.00;;
42858;SDS011;28505;56.970;40.998;2023-02-12T09:35:21;1.15;;;0.82;;
42858;SDS011;28505;56.970;40.998;2023-02-12T09:51:52;1.98;;;1.15;;
42858;SDS011;28505;56.970;40.998;2023-02-12T09:57:18;2.22;;;1.35;;
42858;SDS011;28505;56.970;40.998;2023-02-12T10:02:52;1.00;;;0.70;;
42858;SDS011;28505;56.970;40.998;2023-02-12T10:31:02;1.25;;;0.93;;
42858;SDS011;28505;56.970;40.998;2023-02-12T10:36:30;1.40;;;0.88;;
42858;SDS011;28505;56.970;40.998;2023-02-12T10:47:25;4.53;;;1.23;;
42858;SDS011;28505;56.970;40.998;2023-02-12T10:52:50;1.42;;;0.85;;
42858;SDS011;28505;56.970;40.998;2023-02-12T10:58:20;1.33;;;0.95;;
42858;SDS011;28505;56.970;40.998;2023-02-12T11:03:45;1.20;;;0.90;;
42858;SDS011;28505;56.970;40.998;2023-02-12T11:09:17;2.20;;;1.00;;
42858;SDS011;28505;56.970;40.998;2023-02-12T11:14:53;4.20;;;1.27;;
42858;SDS011;28505;56.970;40.998;2023-02-12T11:20:20;1.00;;;0.70;;
42858;SDS011;28505;56.970;40.998;2023-02-12T11:25:59;1.23;;;0.90;;
42858;SDS011;28505;56.970;40.998;2023-02-12T11:31:32;2.08;;;1.45;;
42858;SDS011;28505;56.970;40.998;2023-02-12T11:36:56;1.00;;;0.70;;
42858;SDS011;28505;56.970;40.998;2023-02-12T11:42:19;1.10;;;0.80;;
42858;SDS011;28505;56.970;40.998;2023-02-12T11:47:44;1.65;;;0.95;;
42858;SDS011;28505;56.970;40.998;2023-02-12T11:53:07;1.30;;;0.85;;
42858;SDS011;28505;56.970;40.998;2023-02-12T11:58:32;1.20;;;0.90;;
42858;SDS011;28505;56.970;40.998;2023-02-12T12:09:40;3.95;;;2.80;;
42858;SDS011;28505;56.970;40.998;2023-02-12T12:21:07;1.27;;;0.90;;
42858;SDS011;28505;56.970;40.998;2023-02-12T12:26:48;2.22;;;1.00;;
42858;SDS011;28505;56.970;40.998;2023-02-12T12:32:21;1.30;;;0.90;;
42858;SDS011;28505;56.970;40.998;2023-02-12T12:37:52;1.10;;;0.70;;
42858;SDS011;28505;56.970;40.998;2023-02-12T12:43:43;1.20;;;0.82;;
42858;SDS011;28505;56.970;40.998;2023-02-12T12:49:25;1.30;;;0.90;;
42858;SDS011;28505;56.970;40.998;2023-02-12T12:55:06;3.25;;;0.98;;
42858;SDS011;28505;56.970;40.998;2023-02-12T13:00:45;1.45;;;1.00;;
42858;SDS011;28505;56.970;40.998;2023-02-12T13:18:13;1.55;;;0.90;;
42858;SDS011;28505;56.970;40.998;2023-02-12T13:29:10;1.42;;;0.85;;
42858;SDS011;28505;56.970;40.998;2023-02-12T13:34:38;1.20;;;0.80;;
42858;SDS011;28505;56.970;40.998;2023-02-12T13:40:04;1.92;;;1.08;;
42858;SDS011;28505;56.970;40.998;2023-02-12T13:57:01;3.25;;;1.30;;
42858;SDS011;28505;56.970;40.998;2023-02-12T14:08:03;1.40;;;0.80;;
42858;SDS011;28505;56.970;40.998;2023-02-12T14:13:26;1.40;;;0.90;;
42858;SDS011;28505;56.970;40.998;2023-02-12T14:24:54;1.40;;;0.90;;
42858;SDS011;28505;56.970;40.998;2023-02-12T14:30:29;7.82;;;1.45;;
42858;SDS011;28505;56.970;40.998;2023-02-12T14:36:36;1.70;;;1.33;;
42858;SDS011;28505;56.970;40.998;2023-02-12T14:52:53;1.40;;;0.90;;
42858;SDS011;28505;56.970;40.998;2023-02-12T14:58:21;1.40;;;0.90;;
42858;SDS011;28505;56.970;40.998;2023-02-12T15:03:47;1.40;;;0.90;;
42858;SDS011;28505;56.970;40.998;2023-02-12T15:09:14;2.50;;;1.10;;
42858;SDS011;28505;56.970;40.998;2023-02-12T15:14:43;3.20;;;2.08;;
42858;SDS011;28505;56.970;40.998;2023-02-12T15:20:23;1.60;;;1.20;;
42858;SDS011;28505;56.970;40.998;2023-02-12T15:25:52;3.15;;;1.20;;
42858;SDS011;28505;56.970;40.998;2023-02-12T15:31:19;1.40;;;0.90;;
42858;SDS011;28505;56.970;40.998;2023-02-12T15:36:46;1.40;;;0.90;;
42858;SDS011;28505;56.970;40.998;2023-02-12T15:42:25;1.40;;;0.90;;
42858;SDS011;28505;56.970;40.998;2023-02-12T15:47:58;1.95;;;1.02;;
42858;SDS011;28505;56.970;40.998;2023-02-12T15:53:30;1.40;;;1.00;;
42858;SDS011;28505;56.970;40.998;2023-02-12T15:58:55;1.40;;;1.00;;
42858;SDS011;28505;56.970;40.998;2023-02-12T16:04:19;1.40;;;1.00;;
42858;SDS011;28505;56.970;40.998;2023-02-12T16:09:42;1.40;;;0.90;;
42858;SDS011;28505;56.970;40.998;2023-02-12T16:15:05;1.40;;;0.90;;
42858;SDS011;28505;56.970;40.998;2023-02-12T16:20:28;1.55;;;1.00;;
42858;SDS011;28505;56.970;40.998;2023-02-12T16:25:53;1.50;;;1.05;;
42858;SDS011;28505;56.970;40.998;2023-02-12T16:31:16;1.40;;;1.00;;
42858;SDS011;28505;56.970;40.998;2023-02-12T16:36:45;1.50;;;1.00;;
42858;SDS011;28505;56.970;40.998;2023-02-12T16:42:10;3.25;;;1.10;;
42858;SDS011;28505;56.970;40.998;2023-02-12T16:47:35;1.40;;;0.90;;
42858;SDS011;28505;56.970;40.998;2023-02-12T16:52:58;1.40;;;1.00;;
42858;SDS011;28505;56.970;40.998;2023-02-12T16:58:22;1.40;;;0.90;;
42858;SDS011;28505;56.970;40.998;2023-02-12T17:03:46;4.32;;;1.20;;
42858;SDS011;28505;56.970;40.998;2023-02-12T17:09:10;1.40;;;0.90;;
42858;SDS011;28505;56.970;40.998;2023-02-12T17:14:33;1.40;;;1.00;;
42858;SDS011;28505;56.970;40.998;2023-02-12T17:19:55;1.60;;;1.20;;
42858;SDS011;28505;56.970;40.998;2023-02-12T17:25:18;1.40;;;0.90;;
42858;SDS011;28505;56.970;40.998;2023-02-12T17:30:41;1.40;;;0.90;;
42858;SDS011;28505;56.970;40.998;2023-02-12T17:36:03;1.40;;;0.90;;
42858;SDS011;28505;56.970;40.998;2023-02-12T17:41:28;1.40;;;0.90;;
42858;SDS011;28505;56.970;40.998;2023-02-12T17:46:50;1.40;;;0.90;;
42858;SDS011;28505;56.970;40.998;2023-02-12T17:52:14;1.40;;;0.90;;
42858;SDS011;28505;56.970;40.998;2023-02-12T17:57:37;1.40;;;0.90;;
42858;SDS011;28505;56.970;40.998;2023-02-12T18:02:59;1.42;;;0.95;;
42858;SDS011;28505;56.970;40.998;2023-02-12T18:08:21;1.40;;;1.00;;
42858;SDS011;28505;56.970;40.998;2023-02-12T18:13:43;1.40;;;0.90;;
42858;SDS011;28505;56.970;40.998;2023-02-12T18:19:06;1.45;;;1.00;;
42858;SDS011;28505;56.970;40.998;2023-02-12T18:24:28;1.40;;;1.00;;
42858;SDS011;28505;56.970;40.998;2023-02-12T18:29:52;1.40;;;0.90;;
42858;SDS011;28505;56.970;40.998;2023-02-12T18:35:14;1.40;;;1.00;;
42858;SDS011;28505;56.970;40.998;2023-02-12T18:40:38;1.40;;;0.90;;
42858;SDS011;28505;56.970;40.998;2023-02-12T18:46:05;1.40;;;0.90;;
42858;SDS011;28505;56.970;40.998;2023-02-12T18:51:32;1.40;;;1.00;;
42858;SDS011;28505;56.970;40.998;2023-02-12T18:56:57;1.67;;;1.40;;
42858;SDS011;28505;56.970;40.998;2023-02-12T19:02:19;1.40;;;1.00;;
42858;SDS011;28505;56.970;40.998;2023-02-12T19:07:42;2.45;;;0.98;;
42858;SDS011;28505;56.970;40.998;2023-02-12T19:13:04;1.40;;;0.98;;
42858;SDS011;28505;56.970;40.998;2023-02-12T19:18:33;1.40;;;1.00;;
42858;SDS011;28505;56.970;40.998;2023-02-12T19:23:56;1.40;;;0.95;;
42858;SDS011;28505;56.970;40.998;2023-02-12T19:29:20;1.40;;;0.90;;
42858;SDS011;28505;56.970;40.998;2023-02-12T19:34:43;1.40;;;0.90;;
42858;SDS011;28505;56.970;40.998;2023-02-12T19:40:06;1.40;;;0.90;;
42858;SDS011;28505;56.970;40.998;2023-02-12T19:45:30;1.90;;;1.42;;
42858;SDS011;28505;56.970;40.998;2023-02-12T19:50:53;1.80;;;1.33;;
42858;SDS011;28505;56.970;40.998;2023-02-12T19:56:16;1.40;;;0.93;;
42858;SDS011;28505;56.970;40.998;2023-02-12T20:01:38;1.50;;;1.10;;
42858;SDS011;28505;56.970;40.998;2023-02-12T20:07:01;1.40;;;0.90;;
42858;SDS011;28505;56.970;40.998;2023-02-12T20:12:23;1.50;;;1.08;;
42858;SDS011;28505;56.970;40.998;2023-02-12T20:17:45;1.50;;;1.05;;
42858;SDS011;28505;56.970;40.998;2023-02-12T20:23:07;1.83;;;1.10;;
42858;SDS011;28505;56.970;40.998;2023-02-12T20:28:29;1.90;;;1.17;;
42858;SDS011;28505;56.970;40.998;2023-02-12T20:33:54;1.50;;;1.00;;
42858;SDS011;28505;56.970;40.998;2023-02-12T20:39:19;1.40;;;0.90;;
42858;SDS011;28505;56.970;40.998;2023-02-12T20:44:42;1.45;;;1.00;;
42858;SDS011;28505;56.970;40.998;2023-02-12T20:50:04;1.40;;;1.00;;
42858;SDS011;28505;56.970;40.998;2023-02-12T20:55:26;1.40;;;1.00;;
42858;SDS011;28505;56.970;40.998;2023-02-12T21:00:49;1.60;;;1.15;;
42858;SDS011;28505;56.970;40.998;2023-02-12T21:06:11;1.80;;;1.23;;
42858;SDS011;28505;56.970;40.998;2023-02-12T21:11:32;1.40;;;0.90;;
42858;SDS011;28505;56.970;40.998;2023-02-12T21:16:54;1.40;;;1.00;;
42858;SDS011;28505;56.970;40.998;2023-02-12T21:22:17;1.60;;;1.30;;
42858;SDS011;28505;56.970;40.998;2023-02-12T21:27:39;1.60;;;1.30;;
42858;SDS011;28505;56.970;40.998;2023-02-12T21:33:02;1.40;;;1.00;;
42858;SDS011;28505;56.970;40.998;2023-02-12T21:38:25;1.80;;;1.25;;
42858;SDS011;28505;56.970;40.998;2023-02-12T21:43:48;1.40;;;1.00;;
42858;SDS011;28505;56.970;40.998;2023-02-12T21:49:15;1.40;;;0.90;;
42858;SDS011;28505;56.970;40.998;2023-02-12T21:54:44;1.60;;;1.10;;
42858;SDS011;28505;56.970;40.998;2023-02-12T22:00:06;1.40;;;1.00;;
42858;SDS011;28505;56.970;40.998;2023-02-12T22:05:35;1.40;;;1.00;;
42858;SDS011;28505;56.970;40.998;2023-02-12T22:10:59;1.40;;;1.00;;
42858;SDS011;28505;56.970;40.998;2023-02-12T22:16:24;1.40;;;0.90;;
42858;SDS011;28505;56.970;40.998;2023-02-12T22:21:49;1.73;;;1.30;;
42858;SDS011;28505;56.970;40.998;2023-02-12T22:27:14;1.40;;;1.00;;
42858;SDS011;28505;56.970;40.998;2023-02-12T22:32:36;1.40;;;0.90;;
42858;SDS011;28505;56.970;40.998;2023-02-12T22:37:59;1.40;;;0.90;;
42858;SDS011;28505;56.970;40.998;2023-02-12T22:43:21;1.40;;;1.00;;
42858;SDS011;28505;56.970;40.998;2023-02-12T22:48:46;1.50;;;1.10;;
42858;SDS011;28505;56.970;40.998;2023-02-12T22:54:11;1.40;;;1.02;;
42858;SDS011;28505;56.970;40.998;2023-02-12T22:59:35;1.67;;;1.42;;
42858;SDS011;28505;56.970;40.998;2023-02-12T23:04:57;1.50;;;1.10;;
42858;SDS011;28505;56.970;40.998;2023-02-12T23:10:19;1.50;;;1.20;;
42858;SDS011;28505;56.970;40.998;2023-02-12T23:15:42;1.92;;;1.58;;
42858;SDS011;28505;56.970;40.998;2023-02-12T23:21:04;1.58;;;1.27;;
42858;SDS011;28505;56.970;40.998;2023-02-12T23:26:27;1.50;;;1.20;;
42858;SDS011;28505;56.970;40.998;2023-02-12T23:31:50;2.00;;;1.80;;
42858;SDS011;28505;56.970;40.998;2023-02-12T23:37:12;1.50;;;1.30;;
42858;SDS011;28505;56.970;40.998;2023-02-12T23:42:35;3.60;;;2.38;;
42858;SDS011;28505;56.970;40.998;2023-02-12T23:47:57;1.63;;;1.40;;
42858;SDS011;28505;56.970;40.998;2023-02-12T23:53:19;1.50;;;1.20;;
42858;SDS011;28505;56.970;40.998;2023-02-12T23:58:43;1.50;;;1.30;;
